Gulden Leeuw — PCBH — position and weather

sailwx.info

Track history (hours):
 
Tides and Currents Weather Stations Pressure Air Temp Water Temp Dewpoint Dewpoint Depression Visibility Wind Speed Wind Dir Waves Ship Positions

Gulden Leeuw

Last reported at 2017-Sep-20 08:33 UTC. Time now 2017-Sep-24 06:58 UTC.
Position N 48°30' W 005°52'.

Length 57 m; draft 4.2 m.

Type: Sailing vessel. MMSI: 246709000.

Date/timePositionNaut miles runAvg speedWind from/ knotsBaromVisibWave heightAir tempDewpointWater temp
2017-Sep-20 08:33N 48°30' W 005°52'11 7.1
2017-Sep-20 06:59N 48°30' W 005°35'3 5.5
2017-Sep-20 06:30N 48°30' W 005°31'2 4.5
2017-Sep-20 05:58N 48°30' W 005°28'2 4.3
2017-Sep-20 05:30N 48°30' W 005°25'2 4.5
2017-Sep-20 05:00N 48°29' W 005°22'2 4.5
2017-Sep-20 04:30N 48°31' W 005°19'1 2.6
2017-Sep-20 04:00N 48°32' W 005°18'1 1.9
2017-Sep-20 03:30N 48°32' W 005°17'1 2.1
2017-Sep-20 03:00N 48°33' W 005°15'1 2.4
2017-Sep-20 02:30N 48°33' W 005°14'1 1.7
2017-Sep-20 02:00N 48°33' W 005°12'1 1.9
2017-Sep-20 01:30N 48°32' W 005°11'1 2.5
2017-Sep-20 01:00N 48°32' W 005°09'1 1.7
2017-Sep-20 00:31N 48°32' W 005°08'1 1.8
2017-Sep-20 00:00N 48°31' W 005°07'1 2.2
2017-Sep-19 23:30N 48°31' W 005°05'1 2.6
2017-Sep-19 23:00N 48°31' W 005°03'4 7.7
2017-Sep-19 22:30N 48°33' W 004°58'5 9.3
2017-Sep-19 22:00N 48°36' W 004°52'510.0
2017-Sep-19 21:30N 48°38' W 004°46'510.1
2017-Sep-19 21:00N 48°40' W 004°39'510.3
2017-Sep-19 20:30N 48°42' W 004°32'5 9.8
2017-Sep-19 20:00N 48°44' W 004°25'5 9.1
2017-Sep-19 19:31N 48°45' W 004°18'4 8.0
2017-Sep-19 19:01N 48°47' W 004°13'4 6.9
2017-Sep-19 18:23N 48°49' W 004°07'3 5.9
2017-Sep-19 17:57N 48°51' W 004°04'2 5.2
2017-Sep-19 17:28N 48°52' W 004°01'2 5.1
2017-Sep-19 17:00N 48°54' W 003°59'3 4.7
2017-Sep-19 16:22N 48°56' W 003°56'8 3.2
2017-Sep-19 13:46N 49°04' W 004°01'10 4.3
2017-Sep-19 11:32N 49°13' W 004°05'2 4.2
2017-Sep-19 10:59N 49°15' W 004°05'10 4.1
2017-Sep-19 08:36N 49°24' W 003°58'1 4.6
2017-Sep-19 08:28N 49°24' W 003°57'2 4.4
2017-Sep-19 07:55N 49°26' W 003°55'2 4.1
2017-Sep-19 07:31N 49°28' W 003°54'2 4.0
2017-Sep-19 07:00N 49°30' W 003°53'2 3.5
2017-Sep-19 06:25N 49°31' W 003°51'1 3.3
2017-Sep-19 06:00N 49°33' W 003°50'2 3.9
2017-Sep-19 05:30N 49°34' W 003°48'2 4.6
2017-Sep-19 05:01N 49°36' W 003°47'2 4.5
2017-Sep-19 04:31N 49°38' W 003°45'2 4.7
2017-Sep-19 04:00N 49°40' W 003°43'2 4.1
2017-Sep-19 03:31N 49°42' W 003°41'2 4.1
2017-Sep-19 03:00N 49°43' W 003°39'2 3.9
2017-Sep-19 02:31N 49°44' W 003°36'2 4.4
2017-Sep-19 02:01N 49°46' W 003°34'2 4.8
2017-Sep-19 01:30N 49°47' W 003°31'3 5.5
2017-Sep-19 01:01N 49°49' W 003°28'3 6.0
2017-Sep-19 00:31N 49°51' W 003°24'3 6.1
2017-Sep-19 00:01N 49°53' W 003°20'3 5.7
2017-Sep-18 23:30N 49°54' W 003°16'3 6.0
2017-Sep-18 23:01N 49°55' W 003°12'3 5.6
2017-Sep-18 22:30N 49°56' W 003°08'2 4.6
2017-Sep-18 22:01N 49°57' W 003°05'2 4.5
2017-Sep-18 21:31N 49°58' W 003°01'2 3.7
2017-Sep-18 21:00N 49°59' W 002°59'2 4.4
2017-Sep-18 20:31N 49°60' W 002°56'2 4.1
2017-Sep-18 20:00N 50°01' W 002°53'3 3.9
2017-Sep-18 19:15N 50°02' W 002°48'60 3.7
2017-Sep-18 02:51N 50°26' W 001°23'1 3.9
2017-Sep-18 02:28N 50°26' W 001°21'2 4.4
2017-Sep-18 01:58N 50°27' W 001°17'3 5.7
2017-Sep-18 01:24N 50°27' W 001°12'7 5.8
2017-Sep-18 00:12N 50°28' W 001°02'8 5.0
2017-Sep-17 22:32N 50°30' W 000°49'1 3.4
2017-Sep-17 22:10N 50°30' W 000°47'1 3.5
2017-Sep-17 21:54N 50°30' W 000°45'1 3.0
2017-Sep-17 21:26N 50°31' W 000°43'1 2.9
2017-Sep-17 20:56N 50°31' W 000°41'2 2.3
2017-Sep-17 19:55N 50°32' W 000°38'1 2.0
2017-Sep-17 19:28N 50°32' W 000°36'2 3.8
2017-Sep-17 19:00N 50°32' W 000°33'2 3.8
2017-Sep-17 18:30N 50°31' W 000°31'3 5.0
2017-Sep-17 18:00N 50°30' W 000°27'3 5.2
2017-Sep-17 17:31N 50°30' W 000°23'3 5.8
2017-Sep-17 17:00N 50°29' W 000°19'3 5.8
2017-Sep-17 16:30N 50°28' W 000°14'3 6.9
2017-Sep-17 16:01N 50°30' W 000°09'4 7.6
2017-Sep-17 15:30N 50°32' W 000°05'4 7.8
2017-Sep-17 15:01N 50°33' E 000°01'4 8.5
2017-Sep-17 14:31N 50°34' E 000°08'4 8.8
2017-Sep-17 14:00N 50°35' E 000°15'5 9.0
2017-Sep-17 13:29N 50°37' E 000°22'4 9.2
2017-Sep-17 13:01N 50°38' E 000°28'4 8.8
2017-Sep-17 12:30N 50°39' E 000°35'4 8.7
2017-Sep-17 12:01N 50°42' E 000°40'4 8.3
2017-Sep-17 11:30N 50°44' E 000°46'4 7.7
2017-Sep-17 11:00N 50°46' E 000°51'4 7.4
2017-Sep-17 10:31N 50°49' E 000°55'4 6.9
2017-Sep-17 09:59N 50°51' E 000°60'3 6.6
2017-Sep-17 09:28N 50°53' E 001°04'4 6.4
2017-Sep-17 08:48N 50°56' E 001°09'3 6.5
2017-Sep-17 08:24N 50°57' E 001°13'3 6.8
2017-Sep-17 08:01N 50°59' E 001°16'4 7.8
2017-Sep-17 07:31N 51°01' E 001°21'4 7.7
2017-Sep-17 07:01N 51°04' E 001°25'4 8.7
2017-Sep-17 06:31N 51°06' E 001°31'5 9.7
2017-Sep-17 06:01N 51°09' E 001°37'5 9.6
2017-Sep-17 05:31N 51°12' E 001°43'5 9.7
2017-Sep-17 05:01N 51°17' E 001°47'5 9.6
2017-Sep-17 04:31N 51°21' E 001°50'4 8.9
2017-Sep-17 04:00N 51°25' E 001°53'4 8.2
2017-Sep-17 03:30N 51°28' E 001°57'4 7.8
2017-Sep-17 03:01N 51°31' E 002°01'4 7.4
2017-Sep-17 02:31N 51°34' E 002°05'4 7.0
2017-Sep-17 02:00N 51°37' E 002°08'3 6.8
2017-Sep-17 01:30N 51°39' E 002°12'4 6.4
2017-Sep-17 00:56N 51°42' E 002°16'3 6.0
2017-Sep-17 00:23N 51°44' E 002°20'67 6.9
2017-Sep-16 14:41N 52°23' E 003°50'1 7.1
2017-Sep-16 14:30N 52°23' E 003°52'4 7.0
2017-Sep-16 14:00N 52°24' E 003°57'3 6.9
2017-Sep-16 13:31N 52°25' E 004°03'3 6.9
2017-Sep-16 13:00N 52°26' E 004°08'3 6.9
2017-Sep-16 12:30N 52°27' E 004°14'3 6.2
2017-Sep-16 12:00N 52°27' E 004°19'3 5.9
2017-Sep-16 11:31N 52°27' E 004°24'3 5.8
2017-Sep-16 11:00N 52°28' E 004°28'3 5.6
2017-Sep-16 10:31N 52°28' E 004°33'1 1.7
2017-Sep-16 10:00N 52°28' E 004°34'1 1.6
2017-Sep-16 09:31N 52°28' E 004°36'3 5.2
2017-Sep-16 09:00N 52°28' E 004°40'1 1.2
2017-Sep-16 08:30N 52°28' E 004°40'0 0.0
2017-Sep-16 08:00N 52°28' E 004°40'0 0.0
2017-Sep-16 07:30N 52°28' E 004°40'0 0.0
2017-Sep-16 07:00N 52°28' E 004°40'0 0.0
2017-Sep-16 06:30N 52°28' E 004°40'0 0.0
2017-Sep-16 06:00N 52°28' E 004°40'0 0.0
2017-Sep-16 05:30N 52°28' E 004°40'0 0.0
2017-Sep-16 05:00N 52°28' E 004°40'0 0.0
2017-Sep-16 04:30N 52°28' E 004°40'0 0.0
2017-Sep-16 04:00N 52°28' E 004°40'0 0.0
2017-Sep-16 03:30N 52°28' E 004°40'0 0.0
2017-Sep-16 03:00N 52°28' E 004°40'0 0.0
2017-Sep-16 02:30N 52°28' E 004°40'0 0.0
2017-Sep-16 02:00N 52°28' E 004°40'0 0.0
2017-Sep-16 01:30N 52°28' E 004°40'0 0.0
2017-Sep-16 01:00N 52°28' E 004°40'0 0.0
2017-Sep-16 00:30N 52°28' E 004°40'0 0.0
2017-Sep-16 00:00N 52°28' E 004°40'0 0.0
2017-Sep-15 23:30N 52°28' E 004°40'0 0.0
2017-Sep-15 23:00N 52°28' E 004°40'0 0.0
2017-Sep-15 22:30N 52°28' E 004°40'0 0.0
2017-Sep-15 22:00N 52°28' E 004°40'0 0.0
2017-Sep-15 21:30N 52°28' E 004°40'0 0.0
2017-Sep-15 21:00N 52°28' E 004°40'0 0.0
2017-Sep-15 20:30N 52°28' E 004°40'0 0.0
2017-Sep-15 20:00N 52°28' E 004°40'0 0.0
2017-Sep-15 19:30N 52°28' E 004°40'0 0.0
2017-Sep-15 19:00N 52°28' E 004°40'0 0.0
2017-Sep-15 18:30N 52°28' E 004°40'0 0.0
2017-Sep-15 18:00N 52°28' E 004°40'0 0.0
2017-Sep-15 17:30N 52°28' E 004°40'0 0.0
2017-Sep-15 17:00N 52°28' E 004°40'0 0.0
2017-Sep-15 16:30N 52°28' E 004°40'0 0.0
2017-Sep-15 16:00N 52°28' E 004°40'0 0.0
2017-Sep-15 15:30N 52°28' E 004°40'0 0.0
2017-Sep-15 15:00N 52°28' E 004°40'0 0.0
2017-Sep-15 14:30N 52°28' E 004°40'0 0.0
2017-Sep-15 14:00N 52°28' E 004°40'0 0.0
2017-Sep-15 13:30N 52°28' E 004°40'0 0.0
2017-Sep-15 13:00N 52°28' E 004°40'0 0.0
2017-Sep-15 12:30N 52°28' E 004°40'0 0.0
2017-Sep-15 12:00N 52°28' E 004°40'0 0.0
2017-Sep-15 11:30N 52°28' E 004°40'0 0.0
2017-Sep-15 11:00N 52°28' E 004°40'0 0.0
2017-Sep-15 10:30N 52°28' E 004°40'0 0.0
2017-Sep-15 09:30N 52°28' E 004°40'0 0.0
2017-Sep-15 09:00N 52°28' E 004°40'0 0.0
2017-Sep-15 08:30N 52°28' E 004°40'0 0.0
2017-Sep-15 08:00N 52°28' E 004°40'0 0.0
2017-Sep-15 07:30N 52°28' E 004°40'0 0.0
2017-Sep-15 07:00N 52°28' E 004°40'0 0.0
2017-Sep-15 06:30N 52°28' E 004°40'0 0.0
2017-Sep-15 06:00N 52°28' E 004°40'0 0.0
2017-Sep-15 05:30N 52°28' E 004°40'0 0.0
2017-Sep-15 05:00N 52°28' E 004°40'0 0.0
2017-Sep-15 04:30N 52°28' E 004°40'0 0.0
2017-Sep-15 04:00N 52°28' E 004°40'0 0.0
2017-Sep-15 03:30N 52°28' E 004°40'0 0.0
2017-Sep-15 03:00N 52°28' E 004°40'0 0.0
2017-Sep-15 02:30N 52°28' E 004°40'0 0.0
2017-Sep-15 02:00N 52°28' E 004°40'0 0.0
2017-Sep-15 01:30N 52°28' E 004°40'0 0.0
2017-Sep-15 01:00N 52°28' E 004°40'0 0.0
2017-Sep-15 00:30N 52°28' E 004°40'0 0.0
2017-Sep-15 00:00N 52°28' E 004°40'0 0.0
2017-Sep-14 23:30N 52°28' E 004°40'0 0.0
2017-Sep-14 23:00N 52°28' E 004°40'0 0.0
2017-Sep-14 22:30N 52°28' E 004°40'0 0.0
2017-Sep-14 22:00N 52°28' E 004°40'0 0.0
2017-Sep-14 21:30N 52°28' E 004°40'0 0.0
2017-Sep-14 21:00N 52°28' E 004°40'0 0.0
2017-Sep-14 20:30N 52°28' E 004°40'0 0.0
2017-Sep-14 20:00N 52°28' E 004°40'0 0.0
2017-Sep-14 19:30N 52°28' E 004°40'0 0.0
2017-Sep-14 19:00N 52°28' E 004°40'0 0.0
2017-Sep-14 18:30N 52°28' E 004°40'0 0.0
2017-Sep-14 18:00N 52°28' E 004°40'0 0.0
2017-Sep-14 17:30N 52°28' E 004°40'0 0.0
2017-Sep-14 17:00N 52°28' E 004°40'0 0.0
2017-Sep-14 16:30N 52°28' E 004°40'0 0.0
2017-Sep-14 16:00N 52°28' E 004°40'0 0.0
2017-Sep-14 15:30N 52°28' E 004°40'0 0.0
2017-Sep-14 15:00N 52°28' E 004°40'0 0.0
2017-Sep-14 14:30N 52°28' E 004°40'0 0.0
2017-Sep-14 13:30N 52°28' E 004°40'0 0.0
2017-Sep-14 13:00N 52°28' E 004°40'0 0.0
2017-Sep-14 12:30N 52°28' E 004°40'0 0.0
2017-Sep-14 12:00N 52°28' E 004°40'0 0.0
2017-Sep-14 11:30N 52°28' E 004°40'1 1.2
2017-Sep-14 11:00N 52°28' E 004°40'1 2.8
2017-Sep-14 10:30N 52°27' E 004°42'2 4.3
2017-Sep-14 10:01N 52°26' E 004°45'4 7.0
2017-Sep-14 09:31N 52°25' E 004°50'3 5.6
2017-Sep-14 09:01N 52°23' E 004°54'1 1.3
2017-Sep-14 08:28N 52°24' E 004°53'0 0.0
2017-Sep-14 07:58N 52°24' E 004°53'0 0.0
2017-Sep-14 07:28N 52°24' E 004°53'0 0.0
2017-Sep-14 06:55N 52°24' E 004°53'0 0.0
2017-Sep-14 06:28N 52°24' E 004°53'0 0.0
2017-Sep-14 05:58N 52°24' E 004°53'0 0.0
2017-Sep-14 05:28N 52°24' E 004°53'0 0.0
2017-Sep-14 04:58N 52°24' E 004°53'0 0.0
2017-Sep-14 04:28N 52°24' E 004°53'0 0.0
2017-Sep-14 03:58N 52°24' E 004°53'0 0.0
2017-Sep-14 03:28N 52°24' E 004°53'0 0.0
2017-Sep-14 02:58N 52°24' E 004°53'0 0.0
2017-Sep-14 02:28N 52°24' E 004°53'0 0.0
2017-Sep-14 01:58N 52°24' E 004°53'0 0.0
2017-Sep-14 01:28N 52°24' E 004°53'0 0.0
2017-Sep-14 00:58N 52°24' E 004°53'0 0.0
2017-Sep-14 00:28N 52°24' E 004°53'0 0.0
2017-Sep-13 23:58N 52°24' E 004°53'0 0.0
2017-Sep-13 23:28N 52°24' E 004°53'0 0.0
2017-Sep-13 22:58N 52°24' E 004°53'0 0.0
2017-Sep-13 22:28N 52°24' E 004°53'0 0.0
2017-Sep-13 21:58N 52°24' E 004°53'0 0.0
2017-Sep-13 21:28N 52°24' E 004°53'0 0.0
2017-Sep-13 20:58N 52°24' E 004°53'0 0.0
2017-Sep-13 20:28N 52°24' E 004°53'0 0.0
2017-Sep-13 19:58N 52°24' E 004°53'0 0.0
2017-Sep-13 19:28N 52°24' E 004°53'0 0.0
2017-Sep-13 18:58N 52°24' E 004°53'0 0.0
2017-Sep-13 18:28N 52°24' E 004°53'0 0.0
2017-Sep-13 17:58N 52°24' E 004°53'0 0.0
2017-Sep-13 17:28N 52°24' E 004°53'0 0.0
2017-Sep-13 16:58N 52°24' E 004°53'0 0.0
2017-Sep-13 16:28N 52°24' E 004°53'0 0.0
2017-Sep-13 15:58N 52°24' E 004°53'0 0.0
2017-Sep-13 15:28N 52°24' E 004°53'0 0.0
2017-Sep-13 14:58N 52°24' E 004°53'0 0.0
2017-Sep-13 14:28N 52°24' E 004°53'0 0.0
2017-Sep-13 13:58N 52°24' E 004°53'0 0.0
2017-Sep-13 13:28N 52°24' E 004°53'0 0.0
2017-Sep-13 12:58N 52°24' E 004°53'0 0.0
2017-Sep-13 12:28N 52°24' E 004°53'0 0.0
2017-Sep-13 11:58N 52°24' E 004°53'0 0.0
2017-Sep-13 11:28N 52°24' E 004°53'0 0.0
2017-Sep-13 10:58N 52°24' E 004°53'0 0.0
2017-Sep-13 10:31N 52°24' E 004°53'0 0.0
2017-Sep-13 10:01N 52°24' E 004°53'0 0.0
2017-Sep-13 09:30N 52°24' E 004°53'0 0.0
2017-Sep-13 09:01N 52°24' E 004°53'0 0.0
2017-Sep-13 08:30N 52°24' E 004°53'0 0.0
2017-Sep-13 08:00N 52°24' E 004°53'0 0.0
2017-Sep-13 07:30N 52°24' E 004°53'0 0.0
2017-Sep-13 07:00N 52°24' E 004°53'0 0.0
2017-Sep-13 06:30N 52°24' E 004°53'0 0.0
2017-Sep-13 06:01N 52°24' E 004°53'0 0.0
2017-Sep-13 05:30N 52°24' E 004°53'0 0.0
2017-Sep-13 05:00N 52°24' E 004°53'0 0.0
2017-Sep-13 04:31N 52°24' E 004°53'0 0.0
2017-Sep-13 04:00N 52°24' E 004°53'0 0.0
2017-Sep-13 03:31N 52°24' E 004°53'0 0.0
2017-Sep-13 03:00N 52°24' E 004°53'0 0.0
2017-Sep-13 02:30N 52°24' E 004°53'0 0.0
2017-Sep-13 02:00N 52°24' E 004°53'0 0.0
2017-Sep-13 01:31N 52°24' E 004°53'0 0.0
2017-Sep-13 01:01N 52°24' E 004°53'0 0.0
2017-Sep-13 00:31N 52°24' E 004°53'0 0.0
2017-Sep-13 00:00N 52°24' E 004°53'0 0.0
2017-Sep-12 23:31N 52°24' E 004°53'0 0.0
2017-Sep-12 23:01N 52°24' E 004°53'0 0.0
2017-Sep-12 22:30N 52°24' E 004°53'0 0.0
2017-Sep-12 22:01N 52°24' E 004°53'0 0.0
2017-Sep-12 21:30N 52°24' E 004°53'0 0.0
2017-Sep-12 21:00N 52°24' E 004°53'0 0.0
2017-Sep-12 20:30N 52°24' E 004°53'0 0.0
2017-Sep-12 20:01N 52°24' E 004°53'0 0.0
2017-Sep-12 19:31N 52°24' E 004°53'0 0.0
2017-Sep-12 19:01N 52°24' E 004°53'0 0.0
2017-Sep-12 18:31N 52°24' E 004°53'0 0.0
2017-Sep-12 18:01N 52°24' E 004°53'0 0.0
2017-Sep-12 17:30N 52°24' E 004°53'0 0.0
2017-Sep-12 17:01N 52°24' E 004°53'0 0.0
2017-Sep-12 16:31N 52°24' E 004°53'0 0.0
2017-Sep-12 16:00N 52°24' E 004°53'0 0.0
2017-Sep-12 15:31N 52°24' E 004°53'0 0.0
2017-Sep-12 15:01N 52°24' E 004°53'0 0.0
2017-Sep-12 14:31N 52°24' E 004°53'0 0.0
2017-Sep-12 14:00N 52°24' E 004°53'0 0.0
2017-Sep-12 13:31N 52°24' E 004°53'0 0.0
2017-Sep-12 13:01N 52°24' E 004°53'0 0.0
2017-Sep-12 12:30N 52°24' E 004°53'0 0.0
2017-Sep-12 12:01N 52°24' E 004°53'0 0.0
2017-Sep-12 11:31N 52°24' E 004°53'0 0.0
2017-Sep-12 11:01N 52°24' E 004°53'0 0.0
2017-Sep-12 10:31N 52°24' E 004°53'0 0.0
2017-Sep-12 10:01N 52°24' E 004°53'0 0.0
2017-Sep-12 09:31N 52°24' E 004°53'0 0.0
2017-Sep-12 09:01N 52°24' E 004°53'0 0.0
2017-Sep-12 08:31N 52°24' E 004°53'0 0.0
2017-Sep-12 08:00N 52°24' E 004°53'0 0.0
2017-Sep-12 07:30N 52°24' E 004°53'0 0.0
2017-Sep-12 07:00N 52°24' E 004°53'0 0.0
2017-Sep-12 06:31N 52°24' E 004°53'0 0.0
2017-Sep-12 06:01N 52°24' E 004°53'0 0.0
2017-Sep-12 05:31N 52°24' E 004°53'0 0.0
2017-Sep-12 05:01N 52°24' E 004°53'0 0.0
2017-Sep-12 04:31N 52°24' E 004°53'0 0.0
2017-Sep-12 04:01N 52°24' E 004°53'0 0.0
2017-Sep-12 03:31N 52°24' E 004°53'0 0.0
2017-Sep-12 03:01N 52°24' E 004°53'0 0.0
2017-Sep-12 02:31N 52°24' E 004°53'0 0.0
2017-Sep-12 02:01N 52°24' E 004°53'0 0.0
2017-Sep-12 01:30N 52°24' E 004°53'0 0.0
2017-Sep-12 01:01N 52°24' E 004°53'0 0.0
2017-Sep-12 00:31N 52°24' E 004°53'0 0.0
2017-Sep-12 00:00N 52°24' E 004°53'0 0.0
2017-Sep-11 23:30N 52°24' E 004°53'0 0.0
2017-Sep-11 23:01N 52°24' E 004°53'0 0.0
2017-Sep-11 22:31N 52°24' E 004°53'0 0.0
2017-Sep-11 22:00N 52°24' E 004°53'0 0.0
2017-Sep-11 21:31N 52°24' E 004°53'0 0.0
2017-Sep-11 21:00N 52°24' E 004°53'0 0.0
2017-Sep-11 20:30N 52°24' E 004°53'0 0.0
2017-Sep-11 20:01N 52°24' E 004°53'0 0.0
2017-Sep-11 19:30N 52°24' E 004°53'0 0.0
2017-Sep-11 19:01N 52°24' E 004°53'0 0.0
2017-Sep-11 18:30N 52°24' E 004°53'0 0.0
2017-Sep-11 18:01N 52°24' E 004°53'0 0.0
2017-Sep-11 17:31N 52°24' E 004°53'0 0.0
2017-Sep-11 17:00N 52°24' E 004°53'0 0.0
2017-Sep-11 16:30N 52°24' E 004°53'0 0.0
2017-Sep-11 16:01N 52°24' E 004°53'0 0.0
2017-Sep-11 15:31N 52°24' E 004°53'0 0.0
2017-Sep-11 15:00N 52°24' E 004°53'0 0.0
2017-Sep-11 14:30N 52°24' E 004°53'0 0.0
2017-Sep-11 14:00N 52°24' E 004°53'0 0.0
2017-Sep-11 13:31N 52°24' E 004°53'0 0.0
2017-Sep-11 13:00N 52°24' E 004°53'0 0.0
2017-Sep-11 12:31N 52°24' E 004°53'0 0.0
2017-Sep-11 12:01N 52°24' E 004°53'0 0.0
2017-Sep-11 11:31N 52°24' E 004°53'0 0.0
2017-Sep-11 11:01N 52°24' E 004°53'0 0.0
2017-Sep-11 10:31N 52°24' E 004°53'0 0.0
2017-Sep-11 10:00N 52°24' E 004°53'0 0.0
2017-Sep-11 09:31N 52°24' E 004°53'0 0.0
2017-Sep-11 09:00N 52°24' E 004°53'0 0.0
2017-Sep-11 08:30N 52°24' E 004°53'0 0.0
2017-Sep-11 08:00N 52°24' E 004°53'0 0.0
2017-Sep-11 07:31N 52°24' E 004°53'0 0.0
2017-Sep-11 07:01N 52°24' E 004°53'0 0.0
2017-Sep-11 06:31N 52°24' E 004°53'0 0.0
2017-Sep-11 06:00N 52°24' E 004°53'0 0.0
2017-Sep-11 05:31N 52°24' E 004°53'0 0.0
2017-Sep-11 05:01N 52°24' E 004°53'0 0.0
2017-Sep-11 04:30N 52°24' E 004°53'0 0.0
2017-Sep-11 04:01N 52°24' E 004°53'0 0.0
2017-Sep-11 03:30N 52°24' E 004°53'0 0.0
2017-Sep-11 03:01N 52°24' E 004°53'0 0.0
2017-Sep-11 02:30N 52°24' E 004°53'0 0.0
2017-Sep-11 02:01N 52°24' E 004°53'0 0.0
2017-Sep-11 01:30N 52°24' E 004°53'0 0.0
2017-Sep-11 01:00N 52°24' E 004°53'0 0.0
2017-Sep-11 00:31N 52°24' E 004°53'0 0.0
2017-Sep-11 00:01N 52°24' E 004°53'0 0.0
2017-Sep-10 23:31N 52°24' E 004°53'0 0.0
2017-Sep-10 23:01N 52°24' E 004°53'0 0.0
2017-Sep-10 22:31N 52°24' E 004°53'0 0.0
2017-Sep-10 22:00N 52°24' E 004°53'0 0.0
2017-Sep-10 21:31N 52°24' E 004°53'0 0.0
2017-Sep-10 21:01N 52°24' E 004°53'0 0.0
2017-Sep-10 20:30N 52°24' E 004°53'0 0.0
2017-Sep-10 20:01N 52°24' E 004°53'0 0.0
2017-Sep-10 19:31N 52°24' E 004°53'0 0.0
2017-Sep-10 19:01N 52°24' E 004°53'0 0.0
2017-Sep-10 18:31N 52°24' E 004°53'0 0.0
2017-Sep-10 18:01N 52°24' E 004°53'0 0.0
2017-Sep-10 17:30N 52°24' E 004°53'0 0.0
2017-Sep-10 17:01N 52°24' E 004°53'0 0.0
2017-Sep-10 16:31N 52°24' E 004°53'0 0.0
2017-Sep-10 16:01N 52°24' E 004°53'0 0.0
2017-Sep-10 15:30N 52°24' E 004°53'0 0.0
2017-Sep-10 15:01N 52°24' E 004°53'0 0.0
2017-Sep-10 14:00N 52°24' E 004°53'0 0.0
2017-Sep-10 13:31N 52°24' E 004°53'0 0.0
2017-Sep-10 13:00N 52°24' E 004°53'0 0.0
2017-Sep-10 12:31N 52°24' E 004°53'0 0.0
2017-Sep-10 12:00N 52°24' E 004°53'0 0.0
2017-Sep-10 11:30N 52°24' E 004°53'0 0.0
2017-Sep-10 11:01N 52°24' E 004°53'0 0.0
2017-Sep-10 10:31N 52°24' E 004°53'0 0.0
2017-Sep-10 10:01N 52°24' E 004°53'0 0.0
2017-Sep-10 09:31N 52°24' E 004°53'0 0.0
2017-Sep-10 09:01N 52°24' E 004°53'  
Track history (hours):
 
Tides and Currents Weather Stations Pressure Air Temp Water Temp Dewpoint Dewpoint Depression Visibility Wind Speed Wind Dir Waves Ship Positions

Gulden Leeuw

Last reported at 2017-Sep-20 08:33 UTC. Time now 2017-Sep-24 06:58 UTC.
Position N 48°30' W 005°52'.

Length 57 m; draft 4.2 m.

Type: Sailing vessel. MMSI: 246709000.

Date/timePositionNaut miles runAvg speedWind from/ knotsBaromVisibWave heightAir tempDewpointWater temp
2017-Sep-20 08:33N 48°30' W 005°52'11 7.1
2017-Sep-20 06:59N 48°30' W 005°35'3 5.5
2017-Sep-20 06:30N 48°30' W 005°31'2 4.5
2017-Sep-20 05:58N 48°30' W 005°28'2 4.3
2017-Sep-20 05:30N 48°30' W 005°25'2 4.5
2017-Sep-20 05:00N 48°29' W 005°22'2 4.5
2017-Sep-20 04:30N 48°31' W 005°19'1 2.6
2017-Sep-20 04:00N 48°32' W 005°18'1 1.9
2017-Sep-20 03:30N 48°32' W 005°17'1 2.1
2017-Sep-20 03:00N 48°33' W 005°15'1 2.4
2017-Sep-20 02:30N 48°33' W 005°14'1 1.7
2017-Sep-20 02:00N 48°33' W 005°12'1 1.9
2017-Sep-20 01:30N 48°32' W 005°11'1 2.5
2017-Sep-20 01:00N 48°32' W 005°09'1 1.7
2017-Sep-20 00:31N 48°32' W 005°08'1 1.8
2017-Sep-20 00:00N 48°31' W 005°07'1 2.2
2017-Sep-19 23:30N 48°31' W 005°05'1 2.6
2017-Sep-19 23:00N 48°31' W 005°03'4 7.7
2017-Sep-19 22:30N 48°33' W 004°58'5 9.3
2017-Sep-19 22:00N 48°36' W 004°52'510.0
2017-Sep-19 21:30N 48°38' W 004°46'510.1
2017-Sep-19 21:00N 48°40' W 004°39'510.3
2017-Sep-19 20:30N 48°42' W 004°32'5 9.8
2017-Sep-19 20:00N 48°44' W 004°25'5 9.1
2017-Sep-19 19:31N 48°45' W 004°18'4 8.0
2017-Sep-19 19:01N 48°47' W 004°13'4 6.9
2017-Sep-19 18:23N 48°49' W 004°07'3 5.9
2017-Sep-19 17:57N 48°51' W 004°04'2 5.2
2017-Sep-19 17:28N 48°52' W 004°01'2 5.1
2017-Sep-19 17:00N 48°54' W 003°59'3 4.7
2017-Sep-19 16:22N 48°56' W 003°56'8 3.2
2017-Sep-19 13:46N 49°04' W 004°01'10 4.3
2017-Sep-19 11:32N 49°13' W 004°05'2 4.2
2017-Sep-19 10:59N 49°15' W 004°05'10 4.1
2017-Sep-19 08:36N 49°24' W 003°58'1 4.6
2017-Sep-19 08:28N 49°24' W 003°57'2 4.4
2017-Sep-19 07:55N 49°26' W 003°55'2 4.1
2017-Sep-19 07:31N 49°28' W 003°54'2 4.0
2017-Sep-19 07:00N 49°30' W 003°53'2 3.5
2017-Sep-19 06:25N 49°31' W 003°51'1 3.3
2017-Sep-19 06:00N 49°33' W 003°50'2 3.9
2017-Sep-19 05:30N 49°34' W 003°48'2 4.6
2017-Sep-19 05:01N 49°36' W 003°47'2 4.5
2017-Sep-19 04:31N 49°38' W 003°45'2 4.7
2017-Sep-19 04:00N 49°40' W 003°43'2 4.1
2017-Sep-19 03:31N 49°42' W 003°41'2 4.1
2017-Sep-19 03:00N 49°43' W 003°39'2 3.9
2017-Sep-19 02:31N 49°44' W 003°36'2 4.4
2017-Sep-19 02:01N 49°46' W 003°34'2 4.8
2017-Sep-19 01:30N 49°47' W 003°31'3 5.5
2017-Sep-19 01:01N 49°49' W 003°28'3 6.0
2017-Sep-19 00:31N 49°51' W 003°24'3 6.1
2017-Sep-19 00:01N 49°53' W 003°20'3 5.7
2017-Sep-18 23:30N 49°54' W 003°16'3 6.0
2017-Sep-18 23:01N 49°55' W 003°12'3 5.6
2017-Sep-18 22:30N 49°56' W 003°08'2 4.6
2017-Sep-18 22:01N 49°57' W 003°05'2 4.5
2017-Sep-18 21:31N 49°58' W 003°01'2 3.7
2017-Sep-18 21:00N 49°59' W 002°59'2 4.4
2017-Sep-18 20:31N 49°60' W 002°56'2 4.1
2017-Sep-18 20:00N 50°01' W 002°53'3 3.9
2017-Sep-18 19:15N 50°02' W 002°48'60 3.7
2017-Sep-18 02:51N 50°26' W 001°23'1 3.9
2017-Sep-18 02:28N 50°26' W 001°21'2 4.4
2017-Sep-18 01:58N 50°27' W 001°17'3 5.7
2017-Sep-18 01:24N 50°27' W 001°12'7 5.8
2017-Sep-18 00:12N 50°28' W 001°02'8 5.0
2017-Sep-17 22:32N 50°30' W 000°49'1 3.4
2017-Sep-17 22:10N 50°30' W 000°47'1 3.5
2017-Sep-17 21:54N 50°30' W 000°45'1 3.0
2017-Sep-17 21:26N 50°31' W 000°43'1 2.9
2017-Sep-17 20:56N 50°31' W 000°41'2 2.3
2017-Sep-17 19:55N 50°32' W 000°38'1 2.0
2017-Sep-17 19:28N 50°32' W 000°36'2 3.8
2017-Sep-17 19:00N 50°32' W 000°33'2 3.8
2017-Sep-17 18:30N 50°31' W 000°31'3 5.0
2017-Sep-17 18:00N 50°30' W 000°27'3 5.2
2017-Sep-17 17:31N 50°30' W 000°23'3 5.8
2017-Sep-17 17:00N 50°29' W 000°19'3 5.8
2017-Sep-17 16:30N 50°28' W 000°14'3 6.9
2017-Sep-17 16:01N 50°30' W 000°09'4 7.6
2017-Sep-17 15:30N 50°32' W 000°05'4 7.8
2017-Sep-17 15:01N 50°33' E 000°01'4 8.5
2017-Sep-17 14:31N 50°34' E 000°08'4 8.8
2017-Sep-17 14:00N 50°35' E 000°15'5 9.0
2017-Sep-17 13:29N 50°37' E 000°22'4 9.2
2017-Sep-17 13:01N 50°38' E 000°28'4 8.8
2017-Sep-17 12:30N 50°39' E 000°35'4 8.7
2017-Sep-17 12:01N 50°42' E 000°40'4 8.3
2017-Sep-17 11:30N 50°44' E 000°46'4 7.7
2017-Sep-17 11:00N 50°46' E 000°51'4 7.4
2017-Sep-17 10:31N 50°49' E 000°55'4 6.9
2017-Sep-17 09:59N 50°51' E 000°60'3 6.6
2017-Sep-17 09:28N 50°53' E 001°04'4 6.4
2017-Sep-17 08:48N 50°56' E 001°09'3 6.5
2017-Sep-17 08:24N 50°57' E 001°13'3 6.8
2017-Sep-17 08:01N 50°59' E 001°16'4 7.8
2017-Sep-17 07:31N 51°01' E 001°21'4 7.7
2017-Sep-17 07:01N 51°04' E 001°25'4 8.7
2017-Sep-17 06:31N 51°06' E 001°31'5 9.7
2017-Sep-17 06:01N 51°09' E 001°37'5 9.6
2017-Sep-17 05:31N 51°12' E 001°43'5 9.7
2017-Sep-17 05:01N 51°17' E 001°47'5 9.6
2017-Sep-17 04:31N 51°21' E 001°50'4 8.9
2017-Sep-17 04:00N 51°25' E 001°53'4 8.2
2017-Sep-17 03:30N 51°28' E 001°57'4 7.8
2017-Sep-17 03:01N 51°31' E 002°01'4 7.4
2017-Sep-17 02:31N 51°34' E 002°05'4 7.0
2017-Sep-17 02:00N 51°37' E 002°08'3 6.8
2017-Sep-17 01:30N 51°39' E 002°12'4 6.4
2017-Sep-17 00:56N 51°42' E 002°16'3 6.0
2017-Sep-17 00:23N 51°44' E 002°20'67 6.9
2017-Sep-16 14:41N 52°23' E 003°50'1 7.1
2017-Sep-16 14:30N 52°23' E 003°52'4 7.0
2017-Sep-16 14:00N 52°24' E 003°57'3 6.9
2017-Sep-16 13:31N 52°25' E 004°03'3 6.9
2017-Sep-16 13:00N 52°26' E 004°08'3 6.9
2017-Sep-16 12:30N 52°27' E 004°14'3 6.2
2017-Sep-16 12:00N 52°27' E 004°19'3 5.9
2017-Sep-16 11:31N 52°27' E 004°24'3 5.8
2017-Sep-16 11:00N 52°28' E 004°28'3 5.6
2017-Sep-16 10:31N 52°28' E 004°33'1 1.7
2017-Sep-16 10:00N 52°28' E 004°34'1 1.6
2017-Sep-16 09:31N 52°28' E 004°36'3 5.2
2017-Sep-16 09:00N 52°28' E 004°40'1 1.2
2017-Sep-16 08:30N 52°28' E 004°40'0 0.0
2017-Sep-16 08:00N 52°28' E 004°40'0 0.0
2017-Sep-16 07:30N 52°28' E 004°40'0 0.0
2017-Sep-16 07:00N 52°28' E 004°40'0 0.0
2017-Sep-16 06:30N 52°28' E 004°40'0 0.0
2017-Sep-16 06:00N 52°28' E 004°40'0 0.0
2017-Sep-16 05:30N 52°28' E 004°40'0 0.0
2017-Sep-16 05:00N 52°28' E 004°40'0 0.0
2017-Sep-16 04:30N 52°28' E 004°40'0 0.0
2017-Sep-16 04:00N 52°28' E 004°40'0 0.0
2017-Sep-16 03:30N 52°28' E 004°40'0 0.0
2017-Sep-16 03:00N 52°28' E 004°40'0 0.0
2017-Sep-16 02:30N 52°28' E 004°40'0 0.0
2017-Sep-16 02:00N 52°28' E 004°40'0 0.0
2017-Sep-16 01:30N 52°28' E 004°40'0 0.0
2017-Sep-16 01:00N 52°28' E 004°40'0 0.0
2017-Sep-16 00:30N 52°28' E 004°40'0 0.0
2017-Sep-16 00:00N 52°28' E 004°40'0 0.0
2017-Sep-15 23:30N 52°28' E 004°40'0 0.0
2017-Sep-15 23:00N 52°28' E 004°40'0 0.0
2017-Sep-15 22:30N 52°28' E 004°40'0 0.0
2017-Sep-15 22:00N 52°28' E 004°40'0 0.0
2017-Sep-15 21:30N 52°28' E 004°40'0 0.0
2017-Sep-15 21:00N 52°28' E 004°40'0 0.0
2017-Sep-15 20:30N 52°28' E 004°40'0 0.0
2017-Sep-15 20:00N 52°28' E 004°40'0 0.0
2017-Sep-15 19:30N 52°28' E 004°40'0 0.0
2017-Sep-15 19:00N 52°28' E 004°40'0 0.0
2017-Sep-15 18:30N 52°28' E 004°40'0 0.0
2017-Sep-15 18:00N 52°28' E 004°40'0 0.0
2017-Sep-15 17:30N 52°28' E 004°40'0 0.0
2017-Sep-15 17:00N 52°28' E 004°40'0 0.0
2017-Sep-15 16:30N 52°28' E 004°40'0 0.0
2017-Sep-15 16:00N 52°28' E 004°40'0 0.0
2017-Sep-15 15:30N 52°28' E 004°40'0 0.0
2017-Sep-15 15:00N 52°28' E 004°40'0 0.0
2017-Sep-15 14:30N 52°28' E 004°40'0 0.0
2017-Sep-15 14:00N 52°28' E 004°40'0 0.0
2017-Sep-15 13:30N 52°28' E 004°40'0 0.0
2017-Sep-15 13:00N 52°28' E 004°40'0 0.0
2017-Sep-15 12:30N 52°28' E 004°40'0 0.0
2017-Sep-15 12:00N 52°28' E 004°40'0 0.0
2017-Sep-15 11:30N 52°28' E 004°40'0 0.0
2017-Sep-15 11:00N 52°28' E 004°40'0 0.0
2017-Sep-15 10:30N 52°28' E 004°40'0 0.0
2017-Sep-15 09:30N 52°28' E 004°40'0 0.0
2017-Sep-15 09:00N 52°28' E 004°40'0 0.0
2017-Sep-15 08:30N 52°28' E 004°40'0 0.0
2017-Sep-15 08:00N 52°28' E 004°40'0 0.0
2017-Sep-15 07:30N 52°28' E 004°40'0 0.0
2017-Sep-15 07:00N 52°28' E 004°40'0 0.0
2017-Sep-15 06:30N 52°28' E 004°40'0 0.0
2017-Sep-15 06:00N 52°28' E 004°40'0 0.0
2017-Sep-15 05:30N 52°28' E 004°40'0 0.0
2017-Sep-15 05:00N 52°28' E 004°40'0 0.0
2017-Sep-15 04:30N 52°28' E 004°40'0 0.0
2017-Sep-15 04:00N 52°28' E 004°40'0 0.0
2017-Sep-15 03:30N 52°28' E 004°40'0 0.0
2017-Sep-15 03:00N 52°28' E 004°40'0 0.0
2017-Sep-15 02:30N 52°28' E 004°40'0 0.0
2017-Sep-15 02:00N 52°28' E 004°40'0 0.0
2017-Sep-15 01:30N 52°28' E 004°40'0 0.0
2017-Sep-15 01:00N 52°28' E 004°40'0 0.0
2017-Sep-15 00:30N 52°28' E 004°40'0 0.0
2017-Sep-15 00:00N 52°28' E 004°40'0 0.0
2017-Sep-14 23:30N 52°28' E 004°40'0 0.0
2017-Sep-14 23:00N 52°28' E 004°40'0 0.0
2017-Sep-14 22:30N 52°28' E 004°40'0 0.0
2017-Sep-14 22:00N 52°28' E 004°40'0 0.0
2017-Sep-14 21:30N 52°28' E 004°40'0 0.0
2017-Sep-14 21:00N 52°28' E 004°40'0 0.0
2017-Sep-14 20:30N 52°28' E 004°40'0 0.0
2017-Sep-14 20:00N 52°28' E 004°40'0 0.0
2017-Sep-14 19:30N 52°28' E 004°40'0 0.0
2017-Sep-14 19:00N 52°28' E 004°40'0 0.0
2017-Sep-14 18:30N 52°28' E 004°40'0 0.0
2017-Sep-14 18:00N 52°28' E 004°40'0 0.0
2017-Sep-14 17:30N 52°28' E 004°40'0 0.0
2017-Sep-14 17:00N 52°28' E 004°40'0 0.0
2017-Sep-14 16:30N 52°28' E 004°40'0 0.0
2017-Sep-14 16:00N 52°28' E 004°40'0 0.0
2017-Sep-14 15:30N 52°28' E 004°40'0 0.0
2017-Sep-14 15:00N 52°28' E 004°40'0 0.0
2017-Sep-14 14:30N 52°28' E 004°40'0 0.0
2017-Sep-14 13:30N 52°28' E 004°40'0 0.0
2017-Sep-14 13:00N 52°28' E 004°40'0 0.0
2017-Sep-14 12:30N 52°28' E 004°40'0 0.0
2017-Sep-14 12:00N 52°28' E 004°40'0 0.0
2017-Sep-14 11:30N 52°28' E 004°40'1 1.2
2017-Sep-14 11:00N 52°28' E 004°40'1 2.8
2017-Sep-14 10:30N 52°27' E 004°42'2 4.3
2017-Sep-14 10:01N 52°26' E 004°45'4 7.0
2017-Sep-14 09:31N 52°25' E 004°50'3 5.6
2017-Sep-14 09:01N 52°23' E 004°54'1 1.3
2017-Sep-14 08:28N 52°24' E 004°53'0 0.0
2017-Sep-14 07:58N 52°24' E 004°53'0 0.0
2017-Sep-14 07:28N 52°24' E 004°53'0 0.0
2017-Sep-14 06:55N 52°24' E 004°53'0 0.0
2017-Sep-14 06:28N 52°24' E 004°53'0 0.0
2017-Sep-14 05:58N 52°24' E 004°53'0 0.0
2017-Sep-14 05:28N 52°24' E 004°53'0 0.0
2017-Sep-14 04:58N 52°24' E 004°53'0 0.0
2017-Sep-14 04:28N 52°24' E 004°53'0 0.0
2017-Sep-14 03:58N 52°24' E 004°53'0 0.0
2017-Sep-14 03:28N 52°24' E 004°53'0 0.0
2017-Sep-14 02:58N 52°24' E 004°53'0 0.0
2017-Sep-14 02:28N 52°24' E 004°53'0 0.0
2017-Sep-14 01:58N 52°24' E 004°53'0 0.0
2017-Sep-14 01:28N 52°24' E 004°53'0 0.0
2017-Sep-14 00:58N 52°24' E 004°53'0 0.0
2017-Sep-14 00:28N 52°24' E 004°53'0 0.0
2017-Sep-13 23:58N 52°24' E 004°53'0 0.0
2017-Sep-13 23:28N 52°24' E 004°53'0 0.0
2017-Sep-13 22:58N 52°24' E 004°53'0 0.0
2017-Sep-13 22:28N 52°24' E 004°53'0 0.0
2017-Sep-13 21:58N 52°24' E 004°53'0 0.0
2017-Sep-13 21:28N 52°24' E 004°53'0 0.0
2017-Sep-13 20:58N 52°24' E 004°53'0 0.0
2017-Sep-13 20:28N 52°24' E 004°53'0 0.0
2017-Sep-13 19:58N 52°24' E 004°53'0 0.0
2017-Sep-13 19:28N 52°24' E 004°53'0 0.0
2017-Sep-13 18:58N 52°24' E 004°53'0 0.0
2017-Sep-13 18:28N 52°24' E 004°53'0 0.0
2017-Sep-13 17:58N 52°24' E 004°53'0 0.0
2017-Sep-13 17:28N 52°24' E 004°53'0 0.0
2017-Sep-13 16:58N 52°24' E 004°53'0 0.0
2017-Sep-13 16:28N 52°24' E 004°53'0 0.0
2017-Sep-13 15:58N 52°24' E 004°53'0 0.0
2017-Sep-13 15:28N 52°24' E 004°53'0 0.0
2017-Sep-13 14:58N 52°24' E 004°53'0 0.0
2017-Sep-13 14:28N 52°24' E 004°53'0 0.0
2017-Sep-13 13:58N 52°24' E 004°53'0 0.0
2017-Sep-13 13:28N 52°24' E 004°53'0 0.0
2017-Sep-13 12:58N 52°24' E 004°53'0 0.0
2017-Sep-13 12:28N 52°24' E 004°53'0 0.0
2017-Sep-13 11:58N 52°24' E 004°53'0 0.0
2017-Sep-13 11:28N 52°24' E 004°53'0 0.0
2017-Sep-13 10:58N 52°24' E 004°53'0 0.0
2017-Sep-13 10:31N 52°24' E 004°53'0 0.0
2017-Sep-13 10:01N 52°24' E 004°53'0 0.0
2017-Sep-13 09:30N 52°24' E 004°53'0 0.0
2017-Sep-13 09:01N 52°24' E 004°53'0 0.0
2017-Sep-13 08:30N 52°24' E 004°53'0 0.0
2017-Sep-13 08:00N 52°24' E 004°53'0 0.0
2017-Sep-13 07:30N 52°24' E 004°53'0 0.0
2017-Sep-13 07:00N 52°24' E 004°53'0 0.0
2017-Sep-13 06:30N 52°24' E 004°53'0 0.0
2017-Sep-13 06:01N 52°24' E 004°53'0 0.0
2017-Sep-13 05:30N 52°24' E 004°53'0 0.0
2017-Sep-13 05:00N 52°24' E 004°53'0 0.0
2017-Sep-13 04:31N 52°24' E 004°53'0 0.0
2017-Sep-13 04:00N 52°24' E 004°53'0 0.0
2017-Sep-13 03:31N 52°24' E 004°53'0 0.0
2017-Sep-13 03:00N 52°24' E 004°53'0 0.0
2017-Sep-13 02:30N 52°24' E 004°53'0 0.0
2017-Sep-13 02:00N 52°24' E 004°53'0 0.0
2017-Sep-13 01:31N 52°24' E 004°53'0 0.0
2017-Sep-13 01:01N 52°24' E 004°53'0 0.0
2017-Sep-13 00:31N 52°24' E 004°53'0 0.0
2017-Sep-13 00:00N 52°24' E 004°53'0 0.0
2017-Sep-12 23:31N 52°24' E 004°53'0 0.0
2017-Sep-12 23:01N 52°24' E 004°53'0 0.0
2017-Sep-12 22:30N 52°24' E 004°53'0 0.0
2017-Sep-12 22:01N 52°24' E 004°53'0 0.0
2017-Sep-12 21:30N 52°24' E 004°53'0 0.0
2017-Sep-12 21:00N 52°24' E 004°53'0 0.0
2017-Sep-12 20:30N 52°24' E 004°53'0 0.0
2017-Sep-12 20:01N 52°24' E 004°53'0 0.0
2017-Sep-12 19:31N 52°24' E 004°53'0 0.0
2017-Sep-12 19:01N 52°24' E 004°53'0 0.0
2017-Sep-12 18:31N 52°24' E 004°53'0 0.0
2017-Sep-12 18:01N 52°24' E 004°53'0 0.0
2017-Sep-12 17:30N 52°24' E 004°53'0 0.0
2017-Sep-12 17:01N 52°24' E 004°53'0 0.0
2017-Sep-12 16:31N 52°24' E 004°53'0 0.0
2017-Sep-12 16:00N 52°24' E 004°53'0 0.0
2017-Sep-12 15:31N 52°24' E 004°53'0 0.0
2017-Sep-12 15:01N 52°24' E 004°53'0 0.0
2017-Sep-12 14:31N 52°24' E 004°53'0 0.0
2017-Sep-12 14:00N 52°24' E 004°53'0 0.0
2017-Sep-12 13:31N 52°24' E 004°53'0 0.0
2017-Sep-12 13:01N 52°24' E 004°53'0 0.0
2017-Sep-12 12:30N 52°24' E 004°53'0 0.0
2017-Sep-12 12:01N 52°24' E 004°53'0 0.0
2017-Sep-12 11:31N 52°24' E 004°53'0 0.0
2017-Sep-12 11:01N 52°24' E 004°53'0 0.0
2017-Sep-12 10:31N 52°24' E 004°53'0 0.0
2017-Sep-12 10:01N 52°24' E 004°53'0 0.0
2017-Sep-12 09:31N 52°24' E 004°53'0 0.0
2017-Sep-12 09:01N 52°24' E 004°53'0 0.0
2017-Sep-12 08:31N 52°24' E 004°53'0 0.0
2017-Sep-12 08:00N 52°24' E 004°53'0 0.0
2017-Sep-12 07:30N 52°24' E 004°53'0 0.0
2017-Sep-12 07:00N 52°24' E 004°53'0 0.0
2017-Sep-12 06:31N 52°24' E 004°53'0 0.0
2017-Sep-12 06:01N 52°24' E 004°53'0 0.0
2017-Sep-12 05:31N 52°24' E 004°53'0 0.0
2017-Sep-12 05:01N 52°24' E 004°53'0 0.0
2017-Sep-12 04:31N 52°24' E 004°53'0 0.0
2017-Sep-12 04:01N 52°24' E 004°53'0 0.0
2017-Sep-12 03:31N 52°24' E 004°53'0 0.0
2017-Sep-12 03:01N 52°24' E 004°53'0 0.0
2017-Sep-12 02:31N 52°24' E 004°53'0 0.0
2017-Sep-12 02:01N 52°24' E 004°53'0 0.0
2017-Sep-12 01:30N 52°24' E 004°53'0 0.0
2017-Sep-12 01:01N 52°24' E 004°53'0 0.0
2017-Sep-12 00:31N 52°24' E 004°53'0 0.0
2017-Sep-12 00:00N 52°24' E 004°53'0 0.0
2017-Sep-11 23:30N 52°24' E 004°53'0 0.0
2017-Sep-11 23:01N 52°24' E 004°53'0 0.0
2017-Sep-11 22:31N 52°24' E 004°53'0 0.0
2017-Sep-11 22:00N 52°24' E 004°53'0 0.0
2017-Sep-11 21:31N 52°24' E 004°53'0 0.0
2017-Sep-11 21:00N 52°24' E 004°53'0 0.0
2017-Sep-11 20:30N 52°24' E 004°53'0 0.0
2017-Sep-11 20:01N 52°24' E 004°53'0 0.0
2017-Sep-11 19:30N 52°24' E 004°53'0 0.0
2017-Sep-11 19:01N 52°24' E 004°53'0 0.0
2017-Sep-11 18:30N 52°24' E 004°53'0 0.0
2017-Sep-11 18:01N 52°24' E 004°53'0 0.0
2017-Sep-11 17:31N 52°24' E 004°53'0 0.0
2017-Sep-11 17:00N 52°24' E 004°53'0 0.0
2017-Sep-11 16:30N 52°24' E 004°53'0 0.0
2017-Sep-11 16:01N 52°24' E 004°53'0 0.0
2017-Sep-11 15:31N 52°24' E 004°53'0 0.0
2017-Sep-11 15:00N 52°24' E 004°53'0 0.0
2017-Sep-11 14:30N 52°24' E 004°53'0 0.0
2017-Sep-11 14:00N 52°24' E 004°53'0 0.0
2017-Sep-11 13:31N 52°24' E 004°53'0 0.0
2017-Sep-11 13:00N 52°24' E 004°53'0 0.0
2017-Sep-11 12:31N 52°24' E 004°53'0 0.0
2017-Sep-11 12:01N 52°24' E 004°53'0 0.0
2017-Sep-11 11:31N 52°24' E 004°53'0 0.0
2017-Sep-11 11:01N 52°24' E 004°53'0 0.0
2017-Sep-11 10:31N 52°24' E 004°53'0 0.0
2017-Sep-11 10:00N 52°24' E 004°53'0 0.0
2017-Sep-11 09:31N 52°24' E 004°53'0 0.0
2017-Sep-11 09:00N 52°24' E 004°53'0 0.0
2017-Sep-11 08:30N 52°24' E 004°53'0 0.0
2017-Sep-11 08:00N 52°24' E 004°53'0 0.0
2017-Sep-11 07:31N 52°24' E 004°53'0 0.0
2017-Sep-11 07:01N 52°24' E 004°53'0 0.0
2017-Sep-11 06:31N 52°24' E 004°53'0 0.0
2017-Sep-11 06:00N 52°24' E 004°53'0 0.0
2017-Sep-11 05:31N 52°24' E 004°53'0 0.0
2017-Sep-11 05:01N 52°24' E 004°53'0 0.0
2017-Sep-11 04:30N 52°24' E 004°53'0 0.0
2017-Sep-11 04:01N 52°24' E 004°53'0 0.0
2017-Sep-11 03:30N 52°24' E 004°53'0 0.0
2017-Sep-11 03:01N 52°24' E 004°53'0 0.0
2017-Sep-11 02:30N 52°24' E 004°53'0 0.0
2017-Sep-11 02:01N 52°24' E 004°53'0 0.0
2017-Sep-11 01:30N 52°24' E 004°53'0 0.0
2017-Sep-11 01:00N 52°24' E 004°53'0 0.0
2017-Sep-11 00:31N 52°24' E 004°53'0 0.0
2017-Sep-11 00:01N 52°24' E 004°53'0 0.0
2017-Sep-10 23:31N 52°24' E 004°53'0 0.0
2017-Sep-10 23:01N 52°24' E 004°53'0 0.0
2017-Sep-10 22:31N 52°24' E 004°53'0 0.0
2017-Sep-10 22:00N 52°24' E 004°53'0 0.0
2017-Sep-10 21:31N 52°24' E 004°53'0 0.0
2017-Sep-10 21:01N 52°24' E 004°53'0 0.0
2017-Sep-10 20:30N 52°24' E 004°53'0 0.0
2017-Sep-10 20:01N 52°24' E 004°53'0 0.0
2017-Sep-10 19:31N 52°24' E 004°53'0 0.0
2017-Sep-10 19:01N 52°24' E 004°53'0 0.0
2017-Sep-10 18:31N 52°24' E 004°53'0 0.0
2017-Sep-10 18:01N 52°24' E 004°53'0 0.0
2017-Sep-10 17:30N 52°24' E 004°53'0 0.0
2017-Sep-10 17:01N 52°24' E 004°53'0 0.0
2017-Sep-10 16:31N 52°24' E 004°53'0 0.0
2017-Sep-10 16:01N 52°24' E 004°53'0 0.0
2017-Sep-10 15:30N 52°24' E 004°53'0 0.0
2017-Sep-10 15:01N 52°24' E 004°53'0 0.0
2017-Sep-10 14:00N 52°24' E 004°53'0 0.0
2017-Sep-10 13:31N 52°24' E 004°53'0 0.0
2017-Sep-10 13:00N 52°24' E 004°53'0 0.0
2017-Sep-10 12:31N 52°24' E 004°53'0 0.0
2017-Sep-10 12:00N 52°24' E 004°53'0 0.0
2017-Sep-10 11:30N 52°24' E 004°53'0 0.0
2017-Sep-10 11:01N 52°24' E 004°53'0 0.0
2017-Sep-10 10:31N 52°24' E 004°53'0 0.0
2017-Sep-10 10:01N 52°24' E 004°53'0 0.0
2017-Sep-10 09:31N 52°24' E 004°53'0 0.0
2017-Sep-10 09:01N 52°24' E 004°53'  

Dump ship's entire track history